Westboro, WI (54490)

3:40 PM CST on February 08, 2016 (GMT -0600)
APRSWXNET | | Change Station
CLOSE
Current Station
Personal Weather Station
Location: Ogema, WI
Elevation: 1469 ft
Nearby Weather Stations

Elev 1469 ft 45.40 °N, 90.20 °W | Updated 32 minutes ago

Snow
Snow
15 °F
Feels Like 15 °F
N
1
Wind Variable Wind from North
Gusts 8.0 mph

Today
High -- | Low -- °F
--% Chance of Precip.
Yesterday
High -- | Low -- °F
Precip. -- in
Pressure 29.74 in
Visibility 10.0 miles
Clouds Overcast 2100 ft
Windchill 15 °F
Dew Point 11 °F
Humidity 85%
Rainfall in
Snow Depth Not available.
7:13 AM 5:18 PM
New Moon, 0% visible
METAR KMDZ 082115Z AUTO 30009G17KT 10SM -SN OVC021 M08/M12 A2974 RMK AO2 T10821117
Pressure 29.74 in
Visibility 10.0 miles
Clouds Overcast 2100 ft
Windchill 15 °F
Dew Point 11 °F
Humidity 85%
Rainfall in
Snow Depth Not available.
7:13 AM 5:18 PM
New Moon, 0% visible
METAR KMDZ 082115Z AUTO 30009G17KT 10SM -SN OVC021 M08/M12 A2974 RMK AO2 T10821117

10-Day Weather Forecast

Almanac

Astronomy

Feb. 08, 2016 Rise Set
Actual Time
Civil Twilight
Nautical Twilight
Astronomical Twilight
Moon
Length of Visible Light
Length of Day
Tomorrow will be .
, % of the Moon is Illuminated

Today's Extremes

State Highs State Lows

Community

WunderPhotos

Upload Photos

1,891,517 photos uploaded!

WunderBlog® & News

Nearby

Air Quality

  Air Quality AQ Index Pollutant
Not available.

Snow Depth

Station Depth Elevation

Earthquake Activity

City Distance Mag. Time & Date
Minimum magnitude displayed is 2.5.

Coastal Water Temperatures

Place Temperature

Stations

Nearby Weather Stations

Station Location Temp. Windchill Dew Point Humidity Wind Precip. Elev Updated Type
                   

Watches & Warnings

There are currently no watches in effect.